Terminal Aerodrome Forecast
Issued by NWS

Home | Current Version | Previous Version | Text Only | Print | Product List | Glossary On
Versions: 1 2 3 4 5 6 7 8 9 10 11 12 13 14 15 16 17 18
000
FTUS46 KSEW 271900 AAA
TAFOLM
TAF AMD
KOLM 271916Z 2719/2818 22005KT 5SM BR BKN006 OVC017
     FM272000 21004KT P6SM VCSH OVC015
     FM280600 25002KT 2SM BR OVC007
     FM281600 09002KT 1/2SM FG OVC003=

USA.gov is the U.S. government's official web portal to all federal, state and local government web resources and services.